sensor_id;sensor_type;location;lat;lon;timestamp;P1;durP1;ratioP1;P2;durP2;ratioP2
47513;SDS011;33951;51.988;5.910;2022-12-15T00:00:26;34.75;;;19.60;;
47513;SDS011;33951;51.988;5.910;2022-12-15T00:03:10;35.42;;;19.85;;
47513;SDS011;33951;51.988;5.910;2022-12-15T00:05:58;33.88;;;18.33;;
47513;SDS011;33951;51.988;5.910;2022-12-15T00:08:43;36.45;;;19.58;;
47513;SDS011;33951;51.988;5.910;2022-12-15T00:11:27;39.00;;;21.95;;
47513;SDS011;33951;51.988;5.910;2022-12-15T00:14:11;37.83;;;19.63;;
47513;SDS011;33951;51.988;5.910;2022-12-15T00:16:55;39.63;;;19.25;;
47513;SDS011;33951;51.988;5.910;2022-12-15T00:19:39;38.58;;;20.52;;
47513;SDS011;33951;51.988;5.910;2022-12-15T00:22:23;31.83;;;17.70;;
47513;SDS011;33951;51.988;5.910;2022-12-15T00:25:08;36.92;;;18.90;;
47513;SDS011;33951;51.988;5.910;2022-12-15T00:27:52;34.55;;;20.42;;
47513;SDS011;33951;51.988;5.910;2022-12-15T00:30:39;39.20;;;20.75;;
47513;SDS011;33951;51.988;5.910;2022-12-15T00:33:23;37.85;;;20.13;;
47513;SDS011;33951;51.988;5.910;2022-12-15T00:36:07;36.20;;;18.70;;
47513;SDS011;33951;51.988;5.910;2022-12-15T00:38:51;35.45;;;17.92;;
47513;SDS011;33951;51.988;5.910;2022-12-15T00:41:17;35.10;;;19.20;;
47513;SDS011;33951;51.988;5.910;2022-12-15T00:43:42;42.17;;;19.55;;
47513;SDS011;33951;51.988;5.910;2022-12-15T00:46:08;36.78;;;19.50;;
47513;SDS011;33951;51.988;5.910;2022-12-15T00:48:53;27.67;;;14.95;;
47513;SDS011;33951;51.988;5.910;2022-12-15T00:51:19;35.72;;;18.95;;
47513;SDS011;33951;51.988;5.910;2022-12-15T00:53:45;33.80;;;17.02;;
47513;SDS011;33951;51.988;5.910;2022-12-15T00:56:30;30.15;;;18.17;;
47513;SDS011;33951;51.988;5.910;2022-12-15T00:59:15;37.10;;;18.75;;
47513;SDS011;33951;51.988;5.910;2022-12-15T05:01:10;28.73;;;15.70;;
47513;SDS011;33951;51.988;5.910;2022-12-15T05:03:54;33.97;;;16.67;;
47513;SDS011;33951;51.988;5.910;2022-12-15T05:06:39;32.22;;;18.23;;
47513;SDS011;33951;51.988;5.910;2022-12-15T05:09:23;30.02;;;17.15;;
47513;SDS011;33951;51.988;5.910;2022-12-15T05:12:07;31.17;;;16.83;;
47513;SDS011;33951;51.988;5.910;2022-12-15T05:14:51;28.00;;;16.00;;
47513;SDS011;33951;51.988;5.910;2022-12-15T05:17:38;35.10;;;16.65;;
47513;SDS011;33951;51.988;5.910;2022-12-15T05:20:28;30.42;;;17.83;;
47513;SDS011;33951;51.988;5.910;2022-12-15T05:23:18;31.42;;;15.50;;
47513;SDS011;33951;51.988;5.910;2022-12-15T05:26:11;32.90;;;16.92;;
47513;SDS011;33951;51.988;5.910;2022-12-15T05:29:06;32.03;;;16.48;;
47513;SDS011;33951;51.988;5.910;2022-12-15T05:31:55;32.83;;;17.30;;
47513;SDS011;33951;51.988;5.910;2022-12-15T05:34:40;28.08;;;15.95;;
47513;SDS011;33951;51.988;5.910;2022-12-15T05:37:29;30.98;;;16.95;;
47513;SDS011;33951;51.988;5.910;2022-12-15T05:43:01;35.53;;;19.27;;
47513;SDS011;33951;51.988;5.910;2022-12-15T05:45:45;35.72;;;18.52;;
47513;SDS011;33951;51.988;5.910;2022-12-15T05:48:31;33.92;;;16.73;;
47513;SDS011;33951;51.988;5.910;2022-12-15T05:51:11;28.10;;;17.08;;
47513;SDS011;33951;51.988;5.910;2022-12-15T05:53:42;35.75;;;18.73;;
47513;SDS011;33951;51.988;5.910;2022-12-15T05:56:19;31.75;;;18.85;;
47513;SDS011;33951;51.988;5.910;2022-12-15T05:59:03;27.90;;;16.38;;
47513;SDS011;33951;51.988;5.910;2022-12-15T06:01:41;34.15;;;19.48;;
47513;SDS011;33951;51.988;5.910;2022-12-15T06:04:30;32.45;;;17.88;;
47513;SDS011;33951;51.988;5.910;2022-12-15T06:07:22;32.40;;;17.80;;
47513;SDS011;33951;51.988;5.910;2022-12-15T06:10:25;30.48;;;18.02;;
47513;SDS011;33951;51.988;5.910;2022-12-15T06:13:27;33.28;;;17.38;;
47513;SDS011;33951;51.988;5.910;2022-12-15T06:16:23;30.40;;;15.98;;
47513;SDS011;33951;51.988;5.910;2022-12-15T06:19:05;31.27;;;17.25;;
47513;SDS011;33951;51.988;5.910;2022-12-15T06:24:48;38.08;;;17.10;;
47513;SDS011;33951;51.988;5.910;2022-12-15T06:27:33;40.28;;;23.27;;
47513;SDS011;33951;51.988;5.910;2022-12-15T06:33:16;31.05;;;17.90;;
47513;SDS011;33951;51.988;5.910;2022-12-15T06:35:48;30.60;;;16.37;;
47513;SDS011;33951;51.988;5.910;2022-12-15T06:41:28;40.00;;;20.95;;
47513;SDS011;33951;51.988;5.910;2022-12-15T06:43:58;38.30;;;21.15;;
47513;SDS011;33951;51.988;5.910;2022-12-15T06:46:33;32.33;;;18.42;;
47513;SDS011;33951;51.988;5.910;2022-12-15T06:49:21;46.00;;;20.98;;
47513;SDS011;33951;51.988;5.910;2022-12-15T06:52:03;35.38;;;18.85;;
47513;SDS011;33951;51.988;5.910;2022-12-15T06:54:31;46.63;;;20.42;;
47513;SDS011;33951;51.988;5.910;2022-12-15T06:57:10;38.90;;;21.83;;
47513;SDS011;33951;51.988;5.910;2022-12-15T07:00:06;45.38;;;23.85;;
47513;SDS011;33951;51.988;5.910;2022-12-15T07:02:56;33.00;;;18.75;;
47513;SDS011;33951;51.988;5.910;2022-12-15T07:05:34;42.80;;;22.08;;
47513;SDS011;33951;51.988;5.910;2022-12-15T07:08:08;34.42;;;18.35;;
47513;SDS011;33951;51.988;5.910;2022-12-15T07:10:43;35.65;;;19.77;;
47513;SDS011;33951;51.988;5.910;2022-12-15T07:13:32;37.10;;;18.15;;
47513;SDS011;33951;51.988;5.910;2022-12-15T07:16:06;37.60;;;20.25;;
47513;SDS011;33951;51.988;5.910;2022-12-15T07:18:38;37.75;;;19.85;;
47513;SDS011;33951;51.988;5.910;2022-12-15T07:21:23;39.88;;;20.38;;
47513;SDS011;33951;51.988;5.910;2022-12-15T07:23:52;40.63;;;21.55;;
47513;SDS011;33951;51.988;5.910;2022-12-15T07:26:31;42.15;;;22.02;;
47513;SDS011;33951;51.988;5.910;2022-12-15T07:29:03;45.95;;;24.10;;
47513;SDS011;33951;51.988;5.910;2022-12-15T07:31:32;40.42;;;22.48;;
47513;SDS011;33951;51.988;5.910;2022-12-15T07:34:16;38.33;;;20.63;;
47513;SDS011;33951;51.988;5.910;2022-12-15T07:36:49;39.03;;;20.58;;
47513;SDS011;33951;51.988;5.910;2022-12-15T07:39:36;46.08;;;25.48;;
47513;SDS011;33951;51.988;5.910;2022-12-15T07:42:40;41.47;;;23.10;;
47513;SDS011;33951;51.988;5.910;2022-12-15T07:45:26;39.97;;;20.85;;
47513;SDS011;33951;51.988;5.910;2022-12-15T07:48:01;37.95;;;20.85;;
47513;SDS011;33951;51.988;5.910;2022-12-15T07:50:45;41.55;;;22.92;;
47513;SDS011;33951;51.988;5.910;2022-12-15T07:53:31;42.60;;;22.48;;
47513;SDS011;33951;51.988;5.910;2022-12-15T07:56:17;45.33;;;23.50;;
47513;SDS011;33951;51.988;5.910;2022-12-15T07:58:47;44.92;;;23.25;;
47513;SDS011;33951;51.988;5.910;2022-12-15T08:01:35;42.10;;;22.60;;
47513;SDS011;33951;51.988;5.910;2022-12-15T08:04:16;43.83;;;22.17;;
47513;SDS011;33951;51.988;5.910;2022-12-15T08:06:45;40.10;;;22.13;;
47513;SDS011;33951;51.988;5.910;2022-12-15T08:09:19;42.78;;;24.75;;
47513;SDS011;33951;51.988;5.910;2022-12-15T08:11:52;50.63;;;23.45;;
47513;SDS011;33951;51.988;5.910;2022-12-15T08:14:30;48.35;;;24.58;;
47513;SDS011;33951;51.988;5.910;2022-12-15T08:17:05;53.55;;;25.55;;
47513;SDS011;33951;51.988;5.910;2022-12-15T08:19:36;40.40;;;25.27;;
47513;SDS011;33951;51.988;5.910;2022-12-15T08:22:12;40.78;;;22.30;;
47513;SDS011;33951;51.988;5.910;2022-12-15T08:24:42;43.75;;;23.58;;
47513;SDS011;33951;51.988;5.910;2022-12-15T08:27:14;50.63;;;22.85;;
47513;SDS011;33951;51.988;5.910;2022-12-15T08:29:53;44.58;;;23.85;;
47513;SDS011;33951;51.988;5.910;2022-12-15T08:32:27;39.05;;;21.75;;
47513;SDS011;33951;51.988;5.910;2022-12-15T08:35:06;48.50;;;26.23;;
47513;SDS011;33951;51.988;5.910;2022-12-15T08:37:44;40.65;;;21.75;;
47513;SDS011;33951;51.988;5.910;2022-12-15T08:43:15;41.20;;;21.95;;
47513;SDS011;33951;51.988;5.910;2022-12-15T08:45:41;45.13;;;24.38;;
47513;SDS011;33951;51.988;5.910;2022-12-15T08:48:15;43.08;;;25.52;;
47513;SDS011;33951;51.988;5.910;2022-12-15T08:53:27;53.05;;;24.85;;
47513;SDS011;33951;51.988;5.910;2022-12-15T08:56:00;51.42;;;25.85;;
47513;SDS011;33951;51.988;5.910;2022-12-15T08:58:40;53.75;;;26.48;;
47513;SDS011;33951;51.988;5.910;2022-12-15T09:01:13;48.10;;;26.13;;
47513;SDS011;33951;51.988;5.910;2022-12-15T09:03:49;55.67;;;28.17;;
47513;SDS011;33951;51.988;5.910;2022-12-15T09:06:36;47.33;;;27.27;;
47513;SDS011;33951;51.988;5.910;2022-12-15T09:09:06;48.40;;;25.25;;
47513;SDS011;33951;51.988;5.910;2022-12-15T09:11:40;52.38;;;28.15;;
47513;SDS011;33951;51.988;5.910;2022-12-15T09:14:08;48.90;;;26.15;;
47513;SDS011;33951;51.988;5.910;2022-12-15T09:16:36;54.30;;;25.10;;
47513;SDS011;33951;51.988;5.910;2022-12-15T09:19:05;48.85;;;27.83;;
47513;SDS011;33951;51.988;5.910;2022-12-15T09:21:46;57.05;;;28.95;;
47513;SDS011;33951;51.988;5.910;2022-12-15T09:24:51;48.95;;;26.15;;
47513;SDS011;33951;51.988;5.910;2022-12-15T09:27:39;44.90;;;25.80;;
47513;SDS011;33951;51.988;5.910;2022-12-15T09:33:56;50.60;;;26.75;;
47513;SDS011;33951;51.988;5.910;2022-12-15T09:36:42;51.55;;;27.38;;
47513;SDS011;33951;51.988;5.910;2022-12-15T09:39:27;51.05;;;29.70;;
47513;SDS011;33951;51.988;5.910;2022-12-15T09:45:31;50.80;;;28.58;;
47513;SDS011;33951;51.988;5.910;2022-12-15T09:48:46;53.00;;;29.35;;
47513;SDS011;33951;51.988;5.910;2022-12-15T10:08:44;57.63;;;30.80;;
47513;SDS011;33951;51.988;5.910;2022-12-15T10:21:31;49.22;;;30.00;;
47513;SDS011;33951;51.988;5.910;2022-12-15T10:24:49;62.08;;;30.00;;
47513;SDS011;33951;51.988;5.910;2022-12-15T10:30:51;46.80;;;28.10;;
47513;SDS011;33951;51.988;5.910;2022-12-15T10:36:38;49.95;;;28.70;;
47513;SDS011;33951;51.988;5.910;2022-12-15T10:54:32;42.08;;;28.55;;
47513;SDS011;33951;51.988;5.910;2022-12-15T11:01:47;45.45;;;27.33;;
47513;SDS011;33951;51.988;5.910;2022-12-15T11:17:14;42.55;;;25.60;;
47513;SDS011;33951;51.988;5.910;2022-12-15T11:19:55;131.70;;;72.07;;
47513;SDS011;33951;51.988;5.910;2022-12-15T11:22:41;37.10;;;24.73;;
47513;SDS011;33951;51.988;5.910;2022-12-15T11:27:46;34.55;;;23.45;;
47513;SDS011;33951;51.988;5.910;2022-12-15T11:30:18;41.92;;;23.48;;
47513;SDS011;33951;51.988;5.910;2022-12-15T11:32:54;38.83;;;24.25;;
47513;SDS011;33951;51.988;5.910;2022-12-15T11:38:18;36.25;;;22.13;;
47513;SDS011;33951;51.988;5.910;2022-12-15T11:41:07;41.65;;;23.23;;
47513;SDS011;33951;51.988;5.910;2022-12-15T11:43:56;37.45;;;23.55;;
47513;SDS011;33951;51.988;5.910;2022-12-15T11:46:30;33.85;;;22.02;;
47513;SDS011;33951;51.988;5.910;2022-12-15T12:00:49;35.03;;;23.35;;
47513;SDS011;33951;51.988;5.910;2022-12-15T12:03:25;33.63;;;21.90;;
47513;SDS011;33951;51.988;5.910;2022-12-15T12:06:00;35.90;;;23.60;;
47513;SDS011;33951;51.988;5.910;2022-12-15T12:11:26;36.35;;;22.98;;
47513;SDS011;33951;51.988;5.910;2022-12-15T12:14:13;31.38;;;21.35;;
47513;SDS011;33951;51.988;5.910;2022-12-15T12:20:26;34.50;;;19.58;;
47513;SDS011;33951;51.988;5.910;2022-12-15T12:23:14;36.95;;;22.67;;
47513;SDS011;33951;51.988;5.910;2022-12-15T12:25:49;32.70;;;22.75;;
47513;SDS011;33951;51.988;5.910;2022-12-15T12:28:30;35.00;;;21.80;;
47513;SDS011;33951;51.988;5.910;2022-12-15T12:31:10;36.97;;;23.05;;
47513;SDS011;33951;51.988;5.910;2022-12-15T12:33:53;39.17;;;23.27;;
47513;SDS011;33951;51.988;5.910;2022-12-15T12:36:22;38.38;;;25.08;;
47513;SDS011;33951;51.988;5.910;2022-12-15T12:38:49;37.08;;;23.40;;
47513;SDS011;33951;51.988;5.910;2022-12-15T12:44:09;37.33;;;24.08;;
47513;SDS011;33951;51.988;5.910;2022-12-15T12:49:47;40.45;;;24.40;;
47513;SDS011;33951;51.988;5.910;2022-12-15T12:52:22;36.03;;;23.48;;
47513;SDS011;33951;51.988;5.910;2022-12-15T12:55:01;37.95;;;24.60;;
47513;SDS011;33951;51.988;5.910;2022-12-15T12:57:39;33.95;;;22.33;;
47513;SDS011;33951;51.988;5.910;2022-12-15T13:05:21;36.10;;;23.80;;
47513;SDS011;33951;51.988;5.910;2022-12-15T13:10:29;34.92;;;23.35;;
47513;SDS011;33951;51.988;5.910;2022-12-15T13:12:57;38.22;;;24.95;;
47513;SDS011;33951;51.988;5.910;2022-12-15T13:15:44;36.17;;;25.27;;
47513;SDS011;33951;51.988;5.910;2022-12-15T13:18:16;37.90;;;23.98;;
47513;SDS011;33951;51.988;5.910;2022-12-15T13:20:47;38.60;;;26.35;;
47513;SDS011;33951;51.988;5.910;2022-12-15T13:26:30;40.45;;;24.15;;
47513;SDS011;33951;51.988;5.910;2022-12-15T13:31:13;41.67;;;24.48;;
47513;SDS011;33951;51.988;5.910;2022-12-15T13:44:41;38.78;;;24.02;;
47513;SDS011;33951;51.988;5.910;2022-12-15T13:47:27;42.90;;;26.02;;
47513;SDS011;33951;51.988;5.910;2022-12-15T13:52:26;44.97;;;26.30;;
47513;SDS011;33951;51.988;5.910;2022-12-15T13:55:17;43.55;;;26.73;;
47513;SDS011;33951;51.988;5.910;2022-12-15T13:58:13;40.30;;;26.73;;
47513;SDS011;33951;51.988;5.910;2022-12-15T14:00:54;50.17;;;32.13;;
47513;SDS011;33951;51.988;5.910;2022-12-15T14:03:22;46.28;;;27.95;;
47513;SDS011;33951;51.988;5.910;2022-12-15T14:05:50;46.78;;;28.52;;
47513;SDS011;33951;51.988;5.910;2022-12-15T14:08:20;42.55;;;25.40;;
47513;SDS011;33951;51.988;5.910;2022-12-15T14:10:51;43.75;;;28.45;;
47513;SDS011;33951;51.988;5.910;2022-12-15T14:15:53;43.85;;;27.13;;
47513;SDS011;33951;51.988;5.910;2022-12-15T14:18:25;40.97;;;25.92;;
47513;SDS011;33951;51.988;5.910;2022-12-15T14:20:53;42.15;;;26.60;;
47513;SDS011;33951;51.988;5.910;2022-12-15T14:23:24;52.50;;;29.15;;
47513;SDS011;33951;51.988;5.910;2022-12-15T14:26:05;44.03;;;26.05;;
47513;SDS011;33951;51.988;5.910;2022-12-15T14:31:01;62.05;;;36.80;;
47513;SDS011;33951;51.988;5.910;2022-12-15T14:33:30;49.83;;;27.75;;
47513;SDS011;33951;51.988;5.910;2022-12-15T14:35:59;41.97;;;27.65;;
47513;SDS011;33951;51.988;5.910;2022-12-15T14:38:27;40.15;;;25.73;;
47513;SDS011;33951;51.988;5.910;2022-12-15T14:40:59;43.78;;;28.98;;
47513;SDS011;33951;51.988;5.910;2022-12-15T14:43:27;44.92;;;27.75;;
47513;SDS011;33951;51.988;5.910;2022-12-15T14:46:16;44.47;;;27.63;;
47513;SDS011;33951;51.988;5.910;2022-12-15T14:48:53;48.08;;;28.23;;
47513;SDS011;33951;51.988;5.910;2022-12-15T14:51:21;42.88;;;28.05;;
47513;SDS011;33951;51.988;5.910;2022-12-15T14:53:49;50.55;;;29.20;;
47513;SDS011;33951;51.988;5.910;2022-12-15T14:58:58;48.22;;;28.88;;
47513;SDS011;33951;51.988;5.910;2022-12-15T15:01:49;51.70;;;31.00;;
47513;SDS011;33951;51.988;5.910;2022-12-15T15:04:38;47.85;;;30.65;;
47513;SDS011;33951;51.988;5.910;2022-12-15T15:07:21;51.65;;;28.70;;
47513;SDS011;33951;51.988;5.910;2022-12-15T15:09:47;44.47;;;27.67;;
47513;SDS011;33951;51.988;5.910;2022-12-15T15:15:15;47.10;;;29.55;;
47513;SDS011;33951;51.988;5.910;2022-12-15T15:20:19;42.80;;;27.45;;
47513;SDS011;33951;51.988;5.910;2022-12-15T15:28:25;41.30;;;26.83;;
47513;SDS011;33951;51.988;5.910;2022-12-15T15:30:53;40.60;;;27.02;;
47513;SDS011;33951;51.988;5.910;2022-12-15T15:33:29;49.80;;;29.00;;
47513;SDS011;33951;51.988;5.910;2022-12-15T15:35:58;44.92;;;27.92;;
47513;SDS011;33951;51.988;5.910;2022-12-15T15:38:38;43.92;;;27.23;;
47513;SDS011;33951;51.988;5.910;2022-12-15T15:43:50;39.38;;;26.42;;
47513;SDS011;33951;51.988;5.910;2022-12-15T15:46:22;43.60;;;27.52;;
47513;SDS011;33951;51.988;5.910;2022-12-15T15:51:36;46.00;;;27.00;;
47513;SDS011;33951;51.988;5.910;2022-12-15T15:54:05;43.70;;;27.02;;
47513;SDS011;33951;51.988;5.910;2022-12-15T15:56:34;48.53;;;31.10;;
47513;SDS011;33951;51.988;5.910;2022-12-15T15:59:14;48.47;;;29.98;;
47513;SDS011;33951;51.988;5.910;2022-12-15T16:04:07;41.90;;;25.85;;
47513;SDS011;33951;51.988;5.910;2022-12-15T16:06:33;46.92;;;28.30;;
47513;SDS011;33951;51.988;5.910;2022-12-15T16:08:59;45.70;;;27.92;;
47513;SDS011;33951;51.988;5.910;2022-12-15T16:11:27;49.28;;;31.00;;
47513;SDS011;33951;51.988;5.910;2022-12-15T16:13:56;47.65;;;27.80;;
47513;SDS011;33951;51.988;5.910;2022-12-15T16:16:23;43.38;;;27.38;;
47513;SDS011;33951;51.988;5.910;2022-12-15T16:18:51;48.80;;;29.90;;
47513;SDS011;33951;51.988;5.910;2022-12-15T16:21:17;50.13;;;29.35;;
47513;SDS011;33951;51.988;5.910;2022-12-15T16:23:46;44.95;;;29.40;;
47513;SDS011;33951;51.988;5.910;2022-12-15T16:26:14;46.35;;;30.40;;
47513;SDS011;33951;51.988;5.910;2022-12-15T16:28:44;41.60;;;27.33;;
47513;SDS011;33951;51.988;5.910;2022-12-15T16:31:13;43.60;;;28.10;;
47513;SDS011;33951;51.988;5.910;2022-12-15T16:33:48;44.33;;;27.60;;
47513;SDS011;33951;51.988;5.910;2022-12-15T16:36:14;42.72;;;27.58;;
47513;SDS011;33951;51.988;5.910;2022-12-15T16:38:39;55.22;;;31.08;;
47513;SDS011;33951;51.988;5.910;2022-12-15T16:41:15;49.15;;;28.60;;
47513;SDS011;33951;51.988;5.910;2022-12-15T16:43:41;44.97;;;28.75;;
47513;SDS011;33951;51.988;5.910;2022-12-15T16:46:10;51.42;;;29.35;;
47513;SDS011;33951;51.988;5.910;2022-12-15T16:48:36;52.15;;;30.83;;
47513;SDS011;33951;51.988;5.910;2022-12-15T16:51:02;62.83;;;39.05;;
47513;SDS011;33951;51.988;5.910;2022-12-15T16:53:32;51.10;;;30.60;;
47513;SDS011;33951;51.988;5.910;2022-12-15T16:56:00;48.22;;;31.73;;
47513;SDS011;33951;51.988;5.910;2022-12-15T16:58:29;48.15;;;31.85;;
47513;SDS011;33951;51.988;5.910;2022-12-15T17:00:55;45.03;;;30.17;;
47513;SDS011;33951;51.988;5.910;2022-12-15T17:03:22;49.30;;;30.98;;
47513;SDS011;33951;51.988;5.910;2022-12-15T17:05:50;47.55;;;30.30;;
47513;SDS011;33951;51.988;5.910;2022-12-15T17:08:23;56.55;;;34.60;;
47513;SDS011;33951;51.988;5.910;2022-12-15T17:10:52;124.90;;;70.53;;
47513;SDS011;33951;51.988;5.910;2022-12-15T17:13:28;51.72;;;33.25;;
47513;SDS011;33951;51.988;5.910;2022-12-15T17:15:58;47.25;;;31.67;;
47513;SDS011;33951;51.988;5.910;2022-12-15T17:18:34;54.28;;;32.45;;
47513;SDS011;33951;51.988;5.910;2022-12-15T17:21:04;61.10;;;36.25;;
47513;SDS011;33951;51.988;5.910;2022-12-15T17:27:02;57.05;;;36.03;;
47513;SDS011;33951;51.988;5.910;2022-12-15T17:29:37;53.08;;;34.25;;
47513;SDS011;33951;51.988;5.910;2022-12-15T17:32:11;56.30;;;34.25;;
47513;SDS011;33951;51.988;5.910;2022-12-15T17:34:39;47.50;;;31.83;;
47513;SDS011;33951;51.988;5.910;2022-12-15T17:37:30;85.13;;;47.88;;
47513;SDS011;33951;51.988;5.910;2022-12-15T17:43:07;60.85;;;35.50;;
47513;SDS011;33951;51.988;5.910;2022-12-15T17:45:40;58.63;;;35.25;;
47513;SDS011;33951;51.988;5.910;2022-12-15T17:48:13;59.90;;;36.58;;
47513;SDS011;33951;51.988;5.910;2022-12-15T17:50:44;50.22;;;32.08;;
47513;SDS011;33951;51.988;5.910;2022-12-15T17:53:27;58.72;;;35.15;;
47513;SDS011;33951;51.988;5.910;2022-12-15T17:56:24;56.45;;;36.25;;
47513;SDS011;33951;51.988;5.910;2022-12-15T17:58:58;60.80;;;38.50;;
47513;SDS011;33951;51.988;5.910;2022-12-15T18:01:46;61.03;;;37.50;;
47513;SDS011;33951;51.988;5.910;2022-12-15T18:04:23;66.45;;;38.03;;
47513;SDS011;33951;51.988;5.910;2022-12-15T18:10:04;69.05;;;39.05;;
47513;SDS011;33951;51.988;5.910;2022-12-15T18:19:44;65.65;;;40.25;;
47513;SDS011;33951;51.988;5.910;2022-12-15T18:25:31;68.60;;;39.13;;
47513;SDS011;33951;51.988;5.910;2022-12-15T18:30:54;71.65;;;43.45;;
47513;SDS011;33951;51.988;5.910;2022-12-15T18:33:48;67.50;;;40.15;;
47513;SDS011;33951;51.988;5.910;2022-12-15T18:37:11;67.47;;;38.75;;
47513;SDS011;33951;51.988;5.910;2022-12-15T18:42:56;58.70;;;36.67;;
47513;SDS011;33951;51.988;5.910;2022-12-15T18:49:34;61.95;;;38.75;;
47513;SDS011;33951;51.988;5.910;2022-12-15T18:56:20;65.80;;;38.60;;
47513;SDS011;33951;51.988;5.910;2022-12-15T19:02:17;65.53;;;39.33;;
47513;SDS011;33951;51.988;5.910;2022-12-15T19:04:45;71.50;;;41.33;;
47513;SDS011;33951;51.988;5.910;2022-12-15T19:10:21;68.93;;;41.10;;
47513;SDS011;33951;51.988;5.910;2022-12-15T19:16:40;65.55;;;35.60;;
47513;SDS011;33951;51.988;5.910;2022-12-15T19:23:08;70.03;;;40.28;;
47513;SDS011;33951;51.988;5.910;2022-12-15T19:32:25;60.15;;;36.67;;
47513;SDS011;33951;51.988;5.910;2022-12-15T19:42:09;63.08;;;37.28;;
47513;SDS011;33951;51.988;5.910;2022-12-15T19:45:25;63.25;;;37.42;;
47513;SDS011;33951;51.988;5.910;2022-12-15T19:51:57;61.30;;;35.05;;
47513;SDS011;33951;51.988;5.910;2022-12-15T19:54:23;58.20;;;34.72;;
47513;SDS011;33951;51.988;5.910;2022-12-15T19:56:49;62.58;;;35.00;;
47513;SDS011;33951;51.988;5.910;2022-12-15T19:59:20;54.28;;;33.00;;
47513;SDS011;33951;51.988;5.910;2022-12-15T20:01:49;53.28;;;30.33;;
47513;SDS011;33951;51.988;5.910;2022-12-15T20:04:15;56.05;;;32.97;;
47513;SDS011;33951;51.988;5.910;2022-12-15T20:06:42;62.53;;;37.70;;
47513;SDS011;33951;51.988;5.910;2022-12-15T20:09:12;69.22;;;37.75;;
47513;SDS011;33951;51.988;5.910;2022-12-15T20:11:39;54.75;;;32.88;;
47513;SDS011;33951;51.988;5.910;2022-12-15T20:14:10;50.28;;;30.50;;
47513;SDS011;33951;51.988;5.910;2022-12-15T20:16:37;57.45;;;32.38;;
47513;SDS011;33951;51.988;5.910;2022-12-15T20:19:03;50.25;;;29.00;;
47513;SDS011;33951;51.988;5.910;2022-12-15T20:21:30;48.85;;;29.20;;
47513;SDS011;33951;51.988;5.910;2022-12-15T20:24:00;51.15;;;29.75;;
47513;SDS011;33951;51.988;5.910;2022-12-15T20:26:42;51.45;;;29.13;;
47513;SDS011;33951;51.988;5.910;2022-12-15T20:29:23;54.37;;;31.40;;
47513;SDS011;33951;51.988;5.910;2022-12-15T20:31:50;47.05;;;30.75;;
47513;SDS011;33951;51.988;5.910;2022-12-15T20:34:17;53.50;;;31.13;;
47513;SDS011;33951;51.988;5.910;2022-12-15T20:36:51;44.45;;;27.75;;
47513;SDS011;33951;51.988;5.910;2022-12-15T20:39:22;54.95;;;32.70;;
47513;SDS011;33951;51.988;5.910;2022-12-15T20:41:51;50.83;;;30.33;;
47513;SDS011;33951;51.988;5.910;2022-12-15T20:44:17;46.90;;;27.70;;
47513;SDS011;33951;51.988;5.910;2022-12-15T20:46:43;52.40;;;32.55;;
47513;SDS011;33951;51.988;5.910;2022-12-15T20:49:20;56.17;;;30.60;;
47513;SDS011;33951;51.988;5.910;2022-12-15T20:51:52;49.28;;;30.70;;
47513;SDS011;33951;51.988;5.910;2022-12-15T20:54:20;58.58;;;33.22;;
47513;SDS011;33951;51.988;5.910;2022-12-15T20:56:52;57.80;;;32.65;;
47513;SDS011;33951;51.988;5.910;2022-12-15T20:59:23;61.88;;;32.97;;
47513;SDS011;33951;51.988;5.910;2022-12-15T21:01:49;51.00;;;28.42;;
47513;SDS011;33951;51.988;5.910;2022-12-15T21:04:24;49.72;;;28.30;;
47513;SDS011;33951;51.988;5.910;2022-12-15T21:06:54;43.40;;;26.05;;
47513;SDS011;33951;51.988;5.910;2022-12-15T21:09:23;48.80;;;30.33;;
47513;SDS011;33951;51.988;5.910;2022-12-15T21:11:49;41.40;;;25.00;;
47513;SDS011;33951;51.988;5.910;2022-12-15T21:14:22;42.23;;;27.20;;
47513;SDS011;33951;51.988;5.910;2022-12-15T21:16:57;42.88;;;26.63;;
47513;SDS011;33951;51.988;5.910;2022-12-15T21:19:28;45.42;;;26.98;;
47513;SDS011;33951;51.988;5.910;2022-12-15T21:21:57;49.22;;;29.33;;
47513;SDS011;33951;51.988;5.910;2022-12-15T21:24:31;45.17;;;26.35;;
47513;SDS011;33951;51.988;5.910;2022-12-15T21:26:57;43.80;;;26.45;;
47513;SDS011;33951;51.988;5.910;2022-12-15T21:29:43;47.25;;;27.90;;
47513;SDS011;33951;51.988;5.910;2022-12-15T21:32:14;45.10;;;27.33;;
47513;SDS011;33951;51.988;5.910;2022-12-15T21:34:43;47.70;;;27.33;;
47513;SDS011;33951;51.988;5.910;2022-12-15T21:37:25;47.97;;;29.08;;
47513;SDS011;33951;51.988;5.910;2022-12-15T21:39:59;51.10;;;28.77;;
47513;SDS011;33951;51.988;5.910;2022-12-15T21:42:34;48.17;;;27.02;;
47513;SDS011;33951;51.988;5.910;2022-12-15T21:47:50;48.67;;;27.90;;
47513;SDS011;33951;51.988;5.910;2022-12-15T21:50:38;42.65;;;24.70;;
47513;SDS011;33951;51.988;5.910;2022-12-15T21:53:09;42.85;;;26.35;;
47513;SDS011;33951;51.988;5.910;2022-12-15T21:55:45;48.22;;;29.35;;
47513;SDS011;33951;51.988;5.910;2022-12-15T21:58:46;40.65;;;26.17;;
47513;SDS011;33951;51.988;5.910;2022-12-15T22:01:24;40.53;;;25.80;;
47513;SDS011;33951;51.988;5.910;2022-12-15T22:03:54;43.17;;;27.08;;
47513;SDS011;33951;51.988;5.910;2022-12-15T22:06:24;45.75;;;25.92;;
47513;SDS011;33951;51.988;5.910;2022-12-15T22:08:52;40.60;;;24.52;;
47513;SDS011;33951;51.988;5.910;2022-12-15T22:11:20;42.67;;;25.15;;
47513;SDS011;33951;51.988;5.910;2022-12-15T22:13:49;48.38;;;27.10;;
47513;SDS011;33951;51.988;5.910;2022-12-15T22:18:50;46.40;;;26.65;;
47513;SDS011;33951;51.988;5.910;2022-12-15T22:21:36;41.50;;;25.05;;
47513;SDS011;33951;51.988;5.910;2022-12-15T22:24:10;44.85;;;25.08;;
47513;SDS011;33951;51.988;5.910;2022-12-15T22:26:49;46.83;;;27.15;;
47513;SDS011;33951;51.988;5.910;2022-12-15T22:29:20;44.20;;;25.38;;
47513;SDS011;33951;51.988;5.910;2022-12-15T22:31:53;44.00;;;25.13;;
47513;SDS011;33951;51.988;5.910;2022-12-15T22:34:20;41.63;;;25.00;;
47513;SDS011;33951;51.988;5.910;2022-12-15T22:36:47;41.67;;;25.98;;
47513;SDS011;33951;51.988;5.910;2022-12-15T22:39:16;39.05;;;24.00;;
47513;SDS011;33951;51.988;5.910;2022-12-15T22:41:47;49.25;;;26.55;;
47513;SDS011;33951;51.988;5.910;2022-12-15T22:44:20;44.88;;;25.08;;
47513;SDS011;33951;51.988;5.910;2022-12-15T22:46:55;43.88;;;25.92;;
47513;SDS011;33951;51.988;5.910;2022-12-15T22:49:24;45.20;;;26.60;;
47513;SDS011;33951;51.988;5.910;2022-12-15T22:51:57;45.38;;;26.85;;
47513;SDS011;33951;51.988;5.910;2022-12-15T22:54:24;44.20;;;26.00;;
47513;SDS011;33951;51.988;5.910;2022-12-15T22:56:56;42.95;;;25.88;;
47513;SDS011;33951;51.988;5.910;2022-12-15T22:59:37;46.67;;;26.92;;
47513;SDS011;33951;51.988;5.910;2022-12-15T23:02:07;51.08;;;27.70;;
47513;SDS011;33951;51.988;5.910;2022-12-15T23:04:34;45.20;;;26.98;;
47513;SDS011;33951;51.988;5.910;2022-12-15T23:07:04;40.70;;;25.67;;
47513;SDS011;33951;51.988;5.910;2022-12-15T23:09:36;39.38;;;24.48;;
47513;SDS011;33951;51.988;5.910;2022-12-15T23:12:02;45.08;;;25.40;;
47513;SDS011;33951;51.988;5.910;2022-12-15T23:14:27;46.22;;;27.02;;
47513;SDS011;33951;51.988;5.910;2022-12-15T23:17:12;45.65;;;24.20;;